sensor_id;sensor_type;location;lat;lon;timestamp;pressure;altitude;pressure_sealevel;temperature;humidity
74075;BME280;62428;51.412;5.432;2022-08-18T00:00:33;101141.41;;;19.01;84.65
74075;BME280;62428;51.412;5.432;2022-08-18T00:03:04;101145.72;;;19.02;85.04
74075;BME280;62428;51.412;5.432;2022-08-18T00:05:30;101147.97;;;19.00;85.46
74075;BME280;62428;51.412;5.432;2022-08-18T00:07:56;101156.63;;;19.02;85.24
74075;BME280;62428;51.412;5.432;2022-08-18T00:10:21;101150.03;;;19.03;85.23
74075;BME280;62428;51.412;5.432;2022-08-18T00:12:46;101145.34;;;19.04;85.21
74075;BME280;62428;51.412;5.432;2022-08-18T00:15:13;101148.44;;;19.02;85.11
74075;BME280;62428;51.412;5.432;2022-08-18T00:17:40;101151.16;;;19.02;84.82
74075;BME280;62428;51.412;5.432;2022-08-18T00:20:08;101154.22;;;19.00;84.84
74075;BME280;62428;51.412;5.432;2022-08-18T00:22:34;101155.34;;;18.99;84.66
74075;BME280;62428;51.412;5.432;2022-08-18T00:25:00;101160.34;;;18.97;84.85
74075;BME280;62428;51.412;5.432;2022-08-18T00:27:29;101161.47;;;18.96;85.11
74075;BME280;62428;51.412;5.432;2022-08-18T00:29:57;101156.03;;;18.96;84.93
74075;BME280;62428;51.412;5.432;2022-08-18T00:32:36;101160.00;;;18.99;84.61
74075;BME280;62428;51.412;5.432;2022-08-18T00:35:18;101167.38;;;18.98;84.66
74075;BME280;62428;51.412;5.432;2022-08-18T00:37:46;101163.41;;;18.96;85.59
74075;BME280;62428;51.412;5.432;2022-08-18T00:40:16;101175.44;;;18.95;85.47
74075;BME280;62428;51.412;5.432;2022-08-18T00:42:46;101182.47;;;18.96;85.53
74075;BME280;62428;51.412;5.432;2022-08-18T00:45:15;101181.34;;;18.97;85.35
74075;BME280;62428;51.412;5.432;2022-08-18T00:47:41;101186.78;;;18.97;85.64
74075;BME280;62428;51.412;5.432;2022-08-18T00:50:08;101192.22;;;18.97;85.51
74075;BME280;62428;51.412;5.432;2022-08-18T00:52:36;101172.84;;;18.98;85.45
74075;BME280;62428;51.412;5.432;2022-08-18T00:55:03;101170.91;;;18.99;85.09
74075;BME280;62428;51.412;5.432;2022-08-18T00:57:29;101172.03;;;18.98;85.66
74075;BME280;62428;51.412;5.432;2022-08-18T01:00:00;101170.91;;;18.99;85.54
74075;BME280;62428;51.412;5.432;2022-08-18T01:02:34;101172.03;;;18.98;85.97
74075;BME280;62428;51.412;5.432;2022-08-18T01:06:04;101167.38;;;18.98;85.56
74075;BME280;62428;51.412;5.432;2022-08-18T01:07:58;101161.59;;;19.00;85.94
74075;BME280;62428;51.412;5.432;2022-08-18T01:10:24;101159.22;;;18.98;85.68
74075;BME280;62428;51.412;5.432;2022-08-18T01:12:53;101158.41;;;18.98;86.08
74075;BME280;62428;51.412;5.432;2022-08-18T01:15:20;101159.22;;;18.98;85.88
74075;BME280;62428;51.412;5.432;2022-08-18T01:17:47;101164.19;;;18.96;85.83
74075;BME280;62428;51.412;5.432;2022-08-18T01:23:57;101161.84;;;18.95;85.61
74075;BME280;62428;51.412;5.432;2022-08-18T01:26:25;101163.28;;;18.92;85.74
74075;BME280;62428;51.412;5.432;2022-08-18T01:28:51;101157.50;;;18.94;85.69
74075;BME280;62428;51.412;5.432;2022-08-18T01:31:37;101162.63;;;18.95;85.22
74075;BME280;62428;51.412;5.432;2022-08-18T01:34:05;101157.50;;;18.94;85.86
74075;BME280;62428;51.412;5.432;2022-08-18T01:36:31;101151.94;;;18.90;85.80
74075;BME280;62428;51.412;5.432;2022-08-18T01:38:58;101164.31;;;18.88;85.24
74075;BME280;62428;51.412;5.432;2022-08-18T01:41:24;101159.56;;;18.85;85.58
74075;BME280;62428;51.412;5.432;2022-08-18T01:43:50;101149.34;;;18.81;85.01
74075;BME280;62428;51.412;5.432;2022-08-18T01:46:19;101157.34;;;18.78;85.50
74075;BME280;62428;51.412;5.432;2022-08-18T01:48:46;101155.66;;;18.73;85.43
74075;BME280;62428;51.412;5.432;2022-08-18T01:51:13;101150.56;;;18.72;85.35
74075;BME280;62428;51.412;5.432;2022-08-18T01:53:39;101150.09;;;18.70;85.60
74075;BME280;62428;51.412;5.432;2022-08-18T01:56:05;101145.66;;;18.65;85.39
74075;BME280;62428;51.412;5.432;2022-08-18T01:58:32;101150.00;;;18.66;85.49
74075;BME280;62428;51.412;5.432;2022-08-18T02:00:59;101150.66;;;18.63;85.30
74075;BME280;62428;51.412;5.432;2022-08-18T02:03:36;101151.81;;;18.62;85.09
74075;BME280;62428;51.412;5.432;2022-08-18T02:06:05;101154.41;;;18.58;85.07
74075;BME280;62428;51.412;5.432;2022-08-18T02:08:32;101155.06;;;18.55;85.43
74075;BME280;62428;51.412;5.432;2022-08-18T02:10:57;101154.63;;;18.53;85.13
74075;BME280;62428;51.412;5.432;2022-08-18T02:13:24;101151.91;;;18.53;85.32
74075;BME280;62428;51.412;5.432;2022-08-18T02:15:49;101152.91;;;18.49;85.13
74075;BME280;62428;51.412;5.432;2022-08-18T02:18:17;101164.13;;;18.47;85.42
74075;BME280;62428;51.412;5.432;2022-08-18T02:20:44;101162.88;;;18.44;85.17
74075;BME280;62428;51.412;5.432;2022-08-18T02:23:10;101169.44;;;18.43;85.43
74075;BME280;62428;51.412;5.432;2022-08-18T02:25:35;101158.91;;;18.42;85.25
74075;BME280;62428;51.412;5.432;2022-08-18T02:28:02;101167.06;;;18.42;85.35
74075;BME280;62428;51.412;5.432;2022-08-18T02:30:27;101170.13;;;18.40;85.43
74075;BME280;62428;51.412;5.432;2022-08-18T02:32:53;101177.84;;;18.38;85.56
74075;BME280;62428;51.412;5.432;2022-08-18T02:35:18;101181.66;;;18.37;85.35
74075;BME280;62428;51.412;5.432;2022-08-18T02:37:43;101180.88;;;18.37;85.29
74075;BME280;62428;51.412;5.432;2022-08-18T02:40:12;101176.22;;;18.37;85.69
74075;BME280;62428;51.412;5.432;2022-08-18T02:42:38;101180.09;;;18.36;85.64
74075;BME280;62428;51.412;5.432;2022-08-18T02:45:04;101179.72;;;18.38;85.48
74075;BME280;62428;51.412;5.432;2022-08-18T02:47:29;101173.19;;;18.39;85.61
74075;BME280;62428;51.412;5.432;2022-08-18T02:49:55;101182.81;;;18.36;85.24
74075;BME280;62428;51.412;5.432;2022-08-18T02:52:21;101183.47;;;18.33;85.68
74075;BME280;62428;51.412;5.432;2022-08-18T02:54:47;101174.53;;;18.33;85.45
74075;BME280;62428;51.412;5.432;2022-08-18T02:57:12;101175.97;;;18.30;85.16
74075;BME280;62428;51.412;5.432;2022-08-18T02:59:39;101190.72;;;18.29;85.34
74075;BME280;62428;51.412;5.432;2022-08-18T03:02:06;101186.88;;;18.30;85.24
74075;BME280;62428;51.412;5.432;2022-08-18T03:04:32;101185.75;;;18.31;85.76
74075;BME280;62428;51.412;5.432;2022-08-18T03:07:03;101205.13;;;18.30;85.73
74075;BME280;62428;51.412;5.432;2022-08-18T03:09:29;101197.41;;;18.32;85.66
74075;BME280;62428;51.412;5.432;2022-08-18T03:11:55;101194.34;;;18.33;85.91
74075;BME280;62428;51.412;5.432;2022-08-18T03:14:21;101194.03;;;18.35;85.89
74075;BME280;62428;51.412;5.432;2022-08-18T03:16:47;101187.31;;;18.32;85.94
74075;BME280;62428;51.412;5.432;2022-08-18T03:19:13;101187.66;;;18.31;85.87
74075;BME280;62428;51.412;5.432;2022-08-18T03:21:44;101187.31;;;18.32;86.11
74075;BME280;62428;51.412;5.432;2022-08-18T03:24:10;101187.31;;;18.32;85.94
74075;BME280;62428;51.412;5.432;2022-08-18T03:26:40;101183.81;;;18.32;85.88
74075;BME280;62428;51.412;5.432;2022-08-18T03:29:06;101184.94;;;18.31;85.53
74075;BME280;62428;51.412;5.432;2022-08-18T03:31:33;101187.53;;;18.27;85.68
74075;BME280;62428;51.412;5.432;2022-08-18T03:34:04;101186.28;;;18.24;85.29
74075;BME280;62428;51.412;5.432;2022-08-18T03:36:32;101188.22;;;18.24;85.56
74075;BME280;62428;51.412;5.432;2022-08-18T03:39:00;101184.72;;;18.23;85.41
74075;BME280;62428;51.412;5.432;2022-08-18T03:41:29;101184.72;;;18.23;85.81
74075;BME280;62428;51.412;5.432;2022-08-18T03:43:55;101176.19;;;18.25;85.98
74075;BME280;62428;51.412;5.432;2022-08-18T03:46:22;101178.13;;;18.24;86.13
74075;BME280;62428;51.412;5.432;2022-08-18T03:48:48;101183.09;;;18.22;85.81
74075;BME280;62428;51.412;5.432;2022-08-18T03:51:17;101191.25;;;18.22;86.05
74075;BME280;62428;51.412;5.432;2022-08-18T03:53:44;101186.47;;;18.19;86.12
74075;BME280;62428;51.412;5.432;2022-08-18T03:56:13;101188.09;;;18.20;85.92
74075;BME280;62428;51.412;5.432;2022-08-18T03:58:44;101165.88;;;18.18;85.79
74075;BME280;62428;51.412;5.432;2022-08-18T04:01:14;101180.25;;;18.19;85.69
74075;BME280;62428;51.412;5.432;2022-08-18T04:03:47;101181.88;;;18.20;85.71
74075;BME280;62428;51.412;5.432;2022-08-18T04:06:18;101175.94;;;18.18;86.30
74075;BME280;62428;51.412;5.432;2022-08-18T04:08:44;101179.03;;;18.16;86.10
74075;BME280;62428;51.412;5.432;2022-08-18T04:11:11;101174.56;;;18.12;86.05
74075;BME280;62428;51.412;5.432;2022-08-18T04:13:39;101173.78;;;18.11;86.12
74075;BME280;62428;51.412;5.432;2022-08-18T04:16:04;101175.22;;;18.09;86.15
74075;BME280;62428;51.412;5.432;2022-08-18T04:18:30;101172.88;;;18.07;85.94
74075;BME280;62428;51.412;5.432;2022-08-18T04:21:01;101174.31;;;18.04;86.06
74075;BME280;62428;51.412;5.432;2022-08-18T04:23:28;101180.75;;;18.00;85.73
74075;BME280;62428;51.412;5.432;2022-08-18T04:25:57;101182.22;;;17.97;86.42
74075;BME280;62428;51.412;5.432;2022-08-18T04:28:24;101181.09;;;17.98;86.32
74075;BME280;62428;51.412;5.432;2022-08-18T04:30:50;101184.94;;;17.97;86.33
74075;BME280;62428;51.412;5.432;2022-08-18T04:33:16;101180.28;;;17.98;86.30
74075;BME280;62428;51.412;5.432;2022-08-18T04:35:41;101188.44;;;17.98;86.16
74075;BME280;62428;51.412;5.432;2022-08-18T04:38:08;101188.09;;;17.99;86.65
74075;BME280;62428;51.412;5.432;2022-08-18T04:40:34;101192.44;;;18.00;86.72
74075;BME280;62428;51.412;5.432;2022-08-18T04:43:00;101182.22;;;17.97;86.29
74075;BME280;62428;51.412;5.432;2022-08-18T04:45:26;101200.78;;;17.95;85.81
74075;BME280;62428;51.412;5.432;2022-08-18T04:47:52;101203.03;;;17.93;86.43
74075;BME280;62428;51.412;5.432;2022-08-18T04:50:17;101211.19;;;17.93;86.36
74075;BME280;62428;51.412;5.432;2022-08-18T04:52:43;101217.41;;;17.94;86.55
74075;BME280;62428;51.412;5.432;2022-08-18T04:55:27;101208.47;;;17.93;86.32
74075;BME280;62428;51.412;5.432;2022-08-18T04:57:54;101216.16;;;17.91;86.92
74075;BME280;62428;51.412;5.432;2022-08-18T05:00:19;101210.41;;;17.93;86.80
74075;BME280;62428;51.412;5.432;2022-08-18T05:02:45;101214.38;;;17.95;86.49
74075;BME280;62428;51.412;5.432;2022-08-18T05:05:10;101217.09;;;17.95;86.39
74075;BME280;62428;51.412;5.432;2022-08-18T05:07:35;101222.97;;;17.97;86.46
74075;BME280;62428;51.412;5.432;2022-08-18T05:10:01;101222.19;;;17.97;86.23
74075;BME280;62428;51.412;5.432;2022-08-18T05:12:26;101226.84;;;17.96;86.17
74075;BME280;62428;51.412;5.432;2022-08-18T05:14:53;101231.91;;;17.98;86.21
74075;BME280;62428;51.412;5.432;2022-08-18T05:17:20;101220.25;;;17.97;86.32
74075;BME280;62428;51.412;5.432;2022-08-18T05:19:46;101222.97;;;17.97;86.00
74075;BME280;62428;51.412;5.432;2022-08-18T05:22:12;101224.59;;;17.98;86.55
74075;BME280;62428;51.412;5.432;2022-08-18T05:24:43;101218.47;;;18.01;85.99
74075;BME280;62428;51.412;5.432;2022-08-18T05:27:09;101217.47;;;18.06;86.37
74075;BME280;62428;51.412;5.432;2022-08-18T05:29:34;101223.69;;;18.06;86.06
74075;BME280;62428;51.412;5.432;2022-08-18T05:32:02;101231.53;;;18.08;86.11
74075;BME280;62428;51.412;5.432;2022-08-18T05:34:28;101227.34;;;18.11;86.15
74075;BME280;62428;51.412;5.432;2022-08-18T05:39:39;101222.53;;;18.16;85.97
74075;BME280;62428;51.412;5.432;2022-08-18T05:42:10;101231.25;;;18.22;85.79
74075;BME280;62428;51.412;5.432;2022-08-18T05:44:42;101232.06;;;18.22;85.78
74075;BME280;62428;51.412;5.432;2022-08-18T05:47:27;101227.84;;;18.25;85.32
74075;BME280;62428;51.412;5.432;2022-08-18T05:49:55;101236.38;;;18.23;85.61
74075;BME280;62428;51.412;5.432;2022-08-18T05:52:32;101233.66;;;18.23;85.74
74075;BME280;62428;51.412;5.432;2022-08-18T05:55:03;101231.38;;;18.25;85.53
74075;BME280;62428;51.412;5.432;2022-08-18T05:57:55;101232.63;;;18.28;85.46
74075;BME280;62428;51.412;5.432;2022-08-18T06:00:23;101228.81;;;18.29;85.54
74075;BME280;62428;51.412;5.432;2022-08-18T06:03:14;101234.81;;;18.35;84.99
74075;BME280;62428;51.412;5.432;2022-08-18T06:05:57;101234.38;;;18.33;85.00
74075;BME280;62428;51.412;5.432;2022-08-18T06:08:30;101225.72;;;18.31;84.80
74075;BME280;62428;51.412;5.432;2022-08-18T06:10:57;101235.03;;;18.30;85.42
74075;BME280;62428;51.412;5.432;2022-08-18T06:13:22;101236.97;;;18.29;85.71
74075;BME280;62428;51.412;5.432;2022-08-18T06:16:08;101245.69;;;18.35;85.38
74075;BME280;62428;51.412;5.432;2022-08-18T06:24:29;101253.41;;;18.33;84.81
74075;BME280;62428;51.412;5.432;2022-08-18T06:30:04;101257.69;;;18.34;85.35
74075;BME280;62428;51.412;5.432;2022-08-18T06:35:18;101260.63;;;18.29;85.57
74075;BME280;62428;51.412;5.432;2022-08-18T06:40:48;101258.63;;;18.38;84.80
74075;BME280;62428;51.412;5.432;2022-08-18T06:43:14;101253.75;;;18.43;85.24
74075;BME280;62428;51.412;5.432;2022-08-18T06:45:42;101264.44;;;18.49;85.43
74075;BME280;62428;51.412;5.432;2022-08-18T06:48:31;101263.56;;;18.57;84.90
74075;BME280;62428;51.412;5.432;2022-08-18T06:51:02;101261.22;;;18.68;85.36
74075;BME280;62428;51.412;5.432;2022-08-18T07:01:52;101264.13;;;18.96;83.71
74075;BME280;62428;51.412;5.432;2022-08-18T07:06:55;101268.78;;;18.95;83.56
74075;BME280;62428;51.412;5.432;2022-08-18T07:09:23;101279.88;;;18.90;82.67
74075;BME280;62428;51.412;5.432;2022-08-18T07:11:58;101267.44;;;18.89;83.14
74075;BME280;62428;51.412;5.432;2022-08-18T07:14:24;101274.00;;;18.88;82.29
74075;BME280;62428;51.412;5.432;2022-08-18T07:17:05;101271.19;;;18.97;83.42
74075;BME280;62428;51.412;5.432;2022-08-18T07:19:30;101274.59;;;19.06;83.51
74075;BME280;62428;51.412;5.432;2022-08-18T07:22:11;101278.66;;;19.12;82.83
74075;BME280;62428;51.412;5.432;2022-08-18T07:24:41;101266.31;;;19.15;83.09
74075;BME280;62428;51.412;5.432;2022-08-18T07:32:21;101269.94;;;19.19;80.96
74075;BME280;62428;51.412;5.432;2022-08-18T07:34:49;101262.56;;;19.19;82.25
74075;BME280;62428;51.412;5.432;2022-08-18T07:37:21;101264.16;;;19.20;81.86
74075;BME280;62428;51.412;5.432;2022-08-18T07:39:55;101270.28;;;19.17;81.90
74075;BME280;62428;51.412;5.432;2022-08-18T07:50:13;101274.81;;;19.26;81.40
74075;BME280;62428;51.412;5.432;2022-08-18T07:52:47;101276.66;;;19.34;82.08
74075;BME280;62428;51.412;5.432;2022-08-18T07:55:27;101266.75;;;19.66;82.77
74075;BME280;62428;51.412;5.432;2022-08-18T08:00:51;101269.31;;;20.00;79.84
74075;BME280;62428;51.412;5.432;2022-08-18T08:06:40;101271.38;;;20.31;79.82
74075;BME280;62428;51.412;5.432;2022-08-18T08:09:20;101269.44;;;20.31;79.42
74075;BME280;62428;51.412;5.432;2022-08-18T08:14:30;101274.44;;;20.29;79.15
74075;BME280;62428;51.412;5.432;2022-08-18T08:17:03;101273.56;;;20.25;78.43
74075;BME280;62428;51.412;5.432;2022-08-18T08:22:20;101284.06;;;19.98;77.63
74075;BME280;62428;51.412;5.432;2022-08-18T08:25:35;101280.47;;;19.94;78.91
74075;BME280;62428;51.412;5.432;2022-08-18T08:28:00;101292.09;;;20.20;78.24
74075;BME280;62428;51.412;5.432;2022-08-18T08:30:48;101283.13;;;20.76;76.58
74075;BME280;62428;51.412;5.432;2022-08-18T08:33:36;101291.69;;;21.22;76.41
74075;BME280;62428;51.412;5.432;2022-08-18T08:36:08;101286.75;;;21.27;75.74
74075;BME280;62428;51.412;5.432;2022-08-18T08:38:45;101291.16;;;21.16;76.36
74075;BME280;62428;51.412;5.432;2022-08-18T08:41:36;101295.13;;;21.03;76.65
74075;BME280;62428;51.412;5.432;2022-08-18T08:44:14;101298.97;;;20.86;76.87
74075;BME280;62428;51.412;5.432;2022-08-18T08:47:16;101302.25;;;21.07;77.08
74075;BME280;62428;51.412;5.432;2022-08-18T08:49:56;101291.25;;;21.52;74.83
74075;BME280;62428;51.412;5.432;2022-08-18T08:52:30;101307.69;;;21.87;73.77
74075;BME280;62428;51.412;5.432;2022-08-18T08:55:04;101303.25;;;22.18;72.56
74075;BME280;62428;51.412;5.432;2022-08-18T08:57:37;101308.41;;;22.23;70.68
74075;BME280;62428;51.412;5.432;2022-08-18T09:00:08;101310.31;;;22.38;71.92
74075;BME280;62428;51.412;5.432;2022-08-18T09:02:50;101309.81;;;22.33;72.65
74075;BME280;62428;51.412;5.432;2022-08-18T09:05:29;101304.72;;;22.31;71.02
74075;BME280;62428;51.412;5.432;2022-08-18T09:16:51;101305.84;;;22.50;71.33
74075;BME280;62428;51.412;5.432;2022-08-18T09:33:20;101290.97;;;22.12;70.35
74075;BME280;62428;51.412;5.432;2022-08-18T09:38:30;101294.44;;;22.08;67.35
74075;BME280;62428;51.412;5.432;2022-08-18T09:41:19;101296.13;;;22.33;66.62
74075;BME280;62428;51.412;5.432;2022-08-18T09:44:04;101297.47;;;22.62;66.54
74075;BME280;62428;51.412;5.432;2022-08-18T09:57:37;101290.84;;;23.32;64.25
74075;BME280;62428;51.412;5.432;2022-08-18T10:07:43;101285.75;;;23.57;64.39
74075;BME280;62428;51.412;5.432;2022-08-18T10:10:16;101286.97;;;23.33;65.17
74075;BME280;62428;51.412;5.432;2022-08-18T10:21:15;101275.88;;;23.53;64.83
74075;BME280;62428;51.412;5.432;2022-08-18T10:31:28;101277.50;;;23.31;65.12
74075;BME280;62428;51.412;5.432;2022-08-18T10:34:06;101273.16;;;23.26;66.08
74075;BME280;62428;51.412;5.432;2022-08-18T10:36:43;101273.03;;;23.19;65.72
74075;BME280;62428;51.412;5.432;2022-08-18T10:39:12;101272.50;;;23.10;64.54
74075;BME280;62428;51.412;5.432;2022-08-18T10:41:49;101270.34;;;22.99;65.98
74075;BME280;62428;51.412;5.432;2022-08-18T10:44:19;101271.38;;;22.91;65.95
74075;BME280;62428;51.412;5.432;2022-08-18T10:46:46;101265.97;;;22.95;66.58
74075;BME280;62428;51.412;5.432;2022-08-18T11:02:58;101273.47;;;23.48;63.63
74075;BME280;62428;51.412;5.432;2022-08-18T11:05:28;101267.63;;;23.49;62.96
74075;BME280;62428;51.412;5.432;2022-08-18T11:07:58;101259.78;;;23.48;62.10
74075;BME280;62428;51.412;5.432;2022-08-18T11:10:37;101262.22;;;23.56;63.39
74075;BME280;62428;51.412;5.432;2022-08-18T11:19:13;101243.38;;;24.12;61.98
74075;BME280;62428;51.412;5.432;2022-08-18T11:21:45;101233.56;;;24.11;61.40
74075;BME280;62428;51.412;5.432;2022-08-18T11:26:51;101238.09;;;23.96;61.44
74075;BME280;62428;51.412;5.432;2022-08-18T11:29:29;101235.63;;;24.21;58.80
74075;BME280;62428;51.412;5.432;2022-08-18T11:32:05;101235.16;;;24.90;57.68
74075;BME280;62428;51.412;5.432;2022-08-18T11:37:21;101224.72;;;25.14;56.17
74075;BME280;62428;51.412;5.432;2022-08-18T11:39:50;101217.50;;;25.47;55.66
74075;BME280;62428;51.412;5.432;2022-08-18T11:42:26;101213.94;;;25.43;54.00
74075;BME280;62428;51.412;5.432;2022-08-18T11:45:06;101225.69;;;25.36;56.06
74075;BME280;62428;51.412;5.432;2022-08-18T11:47:37;101211.13;;;25.32;54.90
74075;BME280;62428;51.412;5.432;2022-08-18T11:50:10;101216.06;;;25.08;56.10
74075;BME280;62428;51.412;5.432;2022-08-18T11:52:51;101211.16;;;25.36;58.93
74075;BME280;62428;51.412;5.432;2022-08-18T11:55:31;101205.22;;;26.14;55.22
74075;BME280;62428;51.412;5.432;2022-08-18T11:58:00;101196.97;;;26.25;54.77
74075;BME280;62428;51.412;5.432;2022-08-18T12:05:47;101204.81;;;26.30;52.95
74075;BME280;62428;51.412;5.432;2022-08-18T12:08:34;101203.66;;;26.27;55.16
74075;BME280;62428;51.412;5.432;2022-08-18T12:11:24;101217.06;;;26.43;55.68
74075;BME280;62428;51.412;5.432;2022-08-18T12:13:59;101214.69;;;26.49;54.52
74075;BME280;62428;51.412;5.432;2022-08-18T12:16:39;101207.63;;;27.02;54.17
74075;BME280;62428;51.412;5.432;2022-08-18T12:19:10;101202.84;;;27.49;51.41
74075;BME280;62428;51.412;5.432;2022-08-18T12:21:39;101211.91;;;27.24;51.60
74075;BME280;62428;51.412;5.432;2022-08-18T12:24:16;101209.25;;;26.74;50.97
74075;BME280;62428;51.412;5.432;2022-08-18T12:26:43;101204.03;;;26.30;52.87
74075;BME280;62428;51.412;5.432;2022-08-18T12:29:09;101210.69;;;26.03;52.90
74075;BME280;62428;51.412;5.432;2022-08-18T12:31:34;101212.22;;;25.97;56.18
74075;BME280;62428;51.412;5.432;2022-08-18T12:33:59;101211.03;;;25.95;54.81
74075;BME280;62428;51.412;5.432;2022-08-18T12:36:26;101217.75;;;26.04;56.14
74075;BME280;62428;51.412;5.432;2022-08-18T12:38:53;101212.25;;;26.12;55.86
74075;BME280;62428;51.412;5.432;2022-08-18T12:41:18;101208.72;;;26.07;52.88
74075;BME280;62428;51.412;5.432;2022-08-18T12:43:44;101209.09;;;25.99;52.72
74075;BME280;62428;51.412;5.432;2022-08-18T12:46:09;101207.06;;;25.88;51.15
74075;BME280;62428;51.412;5.432;2022-08-18T12:48:35;101216.81;;;25.75;52.38
74075;BME280;62428;51.412;5.432;2022-08-18T12:51:02;101210.50;;;25.64;51.97
74075;BME280;62428;51.412;5.432;2022-08-18T12:53:27;101214.84;;;25.68;54.74
74075;BME280;62428;51.412;5.432;2022-08-18T12:55:52;101222.31;;;25.75;53.94
74075;BME280;62428;51.412;5.432;2022-08-18T12:58:18;101230.56;;;25.71;53.94
74075;BME280;62428;51.412;5.432;2022-08-18T13:00:43;101235.63;;;25.59;51.54
74075;BME280;62428;51.412;5.432;2022-08-18T13:03:08;101233.19;;;25.50;53.23
74075;BME280;62428;51.412;5.432;2022-08-18T13:05:34;101242.66;;;25.49;53.59
74075;BME280;62428;51.412;5.432;2022-08-18T13:08:03;101251.25;;;25.44;53.56
74075;BME280;62428;51.412;5.432;2022-08-18T13:10:28;101260.25;;;25.41;53.43
74075;BME280;62428;51.412;5.432;2022-08-18T13:12:54;101255.22;;;25.46;53.54
74075;BME280;62428;51.412;5.432;2022-08-18T13:15:19;101252.88;;;25.52;52.66
74075;BME280;62428;51.412;5.432;2022-08-18T13:17:45;101259.53;;;25.47;51.15
74075;BME280;62428;51.412;5.432;2022-08-18T13:20:13;101251.25;;;25.44;53.98
74075;BME280;62428;51.412;5.432;2022-08-18T13:22:40;101251.34;;;25.62;54.58
74075;BME280;62428;51.412;5.432;2022-08-18T13:25:06;101251.84;;;25.82;54.31
74075;BME280;62428;51.412;5.432;2022-08-18T13:27:34;101247.13;;;25.82;51.38
74075;BME280;62428;51.412;5.432;2022-08-18T13:29:59;101246.44;;;25.96;52.62
74075;BME280;62428;51.412;5.432;2022-08-18T13:32:25;101240.47;;;25.87;53.39
74075;BME280;62428;51.412;5.432;2022-08-18T13:34:50;101239.63;;;25.72;52.96
74075;BME280;62428;51.412;5.432;2022-08-18T13:37:16;101231.66;;;25.52;52.87
74075;BME280;62428;51.412;5.432;2022-08-18T13:39:41;101225.69;;;25.36;52.77
74075;BME280;62428;51.412;5.432;2022-08-18T13:42:07;101224.78;;;25.21;52.80
74075;BME280;62428;51.412;5.432;2022-08-18T13:44:32;101225.88;;;25.13;54.99
74075;BME280;62428;51.412;5.432;2022-08-18T13:46:57;101219.56;;;25.09;55.79
74075;BME280;62428;51.412;5.432;2022-08-18T13:49:23;101217.19;;;25.04;56.30
74075;BME280;62428;51.412;5.432;2022-08-18T13:51:51;101202.59;;;24.92;54.68
74075;BME280;62428;51.412;5.432;2022-08-18T13:54:26;101201.78;;;24.88;56.75
74075;BME280;62428;51.412;5.432;2022-08-18T13:56:52;101206.06;;;24.86;54.51
74075;BME280;62428;51.412;5.432;2022-08-18T13:59:19;101205.63;;;24.80;54.30
74075;BME280;62428;51.412;5.432;2022-08-18T14:01:46;101205.97;;;24.75;54.30
74075;BME280;62428;51.412;5.432;2022-08-18T14:04:13;101212.25;;;24.72;55.17
74075;BME280;62428;51.412;5.432;2022-08-18T14:06:38;101210.25;;;24.69;54.92
74075;BME280;62428;51.412;5.432;2022-08-18T14:09:04;101198.44;;;24.65;55.31
74075;BME280;62428;51.412;5.432;2022-08-18T14:11:31;101198.44;;;24.65;55.11
74075;BME280;62428;51.412;5.432;2022-08-18T14:13:59;101192.63;;;24.73;54.34
74075;BME280;62428;51.412;5.432;2022-08-18T14:16:25;101186.03;;;24.85;55.07
74075;BME280;62428;51.412;5.432;2022-08-18T14:18:51;101183.44;;;25.03;55.19
74075;BME280;62428;51.412;5.432;2022-08-18T14:21:41;101185.81;;;25.08;54.49
74075;BME280;62428;51.412;5.432;2022-08-18T14:24:27;101175.97;;;25.04;53.22
74075;BME280;62428;51.412;5.432;2022-08-18T14:27:11;101170.84;;;25.02;55.12
74075;BME280;62428;51.412;5.432;2022-08-18T14:29:38;101163.84;;;25.08;55.31
74075;BME280;62428;51.412;5.432;2022-08-18T14:32:05;101164.25;;;25.14;53.15
74075;BME280;62428;51.412;5.432;2022-08-18T14:34:31;101157.16;;;25.13;53.46
74075;BME280;62428;51.412;5.432;2022-08-18T14:36:56;101153.63;;;25.12;53.67
74075;BME280;62428;51.412;5.432;2022-08-18T14:39:22;101155.63;;;25.16;54.20
74075;BME280;62428;51.412;5.432;2022-08-18T14:41:47;101160.31;;;25.15;53.31
74075;BME280;62428;51.412;5.432;2022-08-18T14:44:13;101162.31;;;25.18;54.77
74075;BME280;62428;51.412;5.432;2022-08-18T14:46:39;101161.56;;;25.21;54.16
74075;BME280;62428;51.412;5.432;2022-08-18T14:49:05;101154.09;;;25.22;53.41
74075;BME280;62428;51.412;5.432;2022-08-18T14:51:31;101163.50;;;25.21;52.21
74075;BME280;62428;51.412;5.432;2022-08-18T14:53:56;101158.06;;;25.28;53.94
74075;BME280;62428;51.412;5.432;2022-08-18T14:56:23;101160.44;;;25.33;53.21
74075;BME280;62428;51.412;5.432;2022-08-18T14:58:48;101161.25;;;25.37;53.79
74075;BME280;62428;51.412;5.432;2022-08-18T15:01:13;101163.63;;;25.39;53.56
74075;BME280;62428;51.412;5.432;2022-08-18T15:03:39;101166.75;;;25.37;52.90
74075;BME280;62428;51.412;5.432;2022-08-18T15:06:05;101167.91;;;25.29;53.81
74075;BME280;62428;51.412;5.432;2022-08-18T15:08:33;101171.34;;;25.22;53.79
74075;BME280;62428;51.412;5.432;2022-08-18T15:10:59;101167.03;;;25.18;53.30
74075;BME280;62428;51.412;5.432;2022-08-18T15:13:24;101164.63;;;25.12;52.49
74075;BME280;62428;51.412;5.432;2022-08-18T15:15:50;101165.00;;;25.11;52.78
74075;BME280;62428;51.412;5.432;2022-08-18T15:18:15;101169.69;;;25.03;54.58
74075;BME280;62428;51.412;5.432;2022-08-18T15:20:41;101166.09;;;24.96;54.71
74075;BME280;62428;51.412;5.432;2022-08-18T15:23:26;101162.91;;;24.86;56.33
74075;BME280;62428;51.412;5.432;2022-08-18T15:26:10;101171.50;;;24.81;56.61
74075;BME280;62428;51.412;5.432;2022-08-18T15:28:36;101165.63;;;24.83;56.29
74075;BME280;62428;51.412;5.432;2022-08-18T15:31:03;101173.91;;;24.86;55.68